Time;durP1;ratioP1;P1;durP2;ratioP2;P2;SDS_P1;SDS_P2;PMS_P1;PMS_P2;Temp;Humidity;BMP_temperature;BMP_pressure;BME280_temperature;BME280_humidity;BME280_pressure;Samples;Min_cycle;Max_cycle;Signal;HPM_P1;HPM_P2
2023/01/21 00:00:59;;;;;;;;;;;;;;;19.73;36.51;102447.28;7257816;19;152891;-58
2023/01/21 00:03:27;;;;;;;;;;;;;;;19.76;36.56;102441.13;7257836;19;154249;-59
2023/01/21 00:05:54;;;;;;;;;;;;;;;19.78;36.70;102446.50;7254206;19;155435;-59
2023/01/21 00:08:21;;;;;;;;;;;;;;;19.78;36.43;102443.69;7259134;19;153939;-59
2023/01/21 00:10:48;;;;;;;;;;;;;;;19.77;36.45;102448.44;7253999;19;153349;-62
2023/01/21 00:13:15;;;;;;;;;;;;;;;19.76;36.36;102455.16;7263789;19;153383;-59
2023/01/21 00:15:42;;;;;;;;;;;;;;;19.78;36.64;102460.50;7255021;19;153970;-59
2023/01/21 00:18:09;;;;;;;;;;;;;;;19.80;36.36;102466.72;7254392;19;154223;-59
2023/01/21 00:20:36;;;;;;;;;;;;;;;19.80;36.13;102466.72;7257551;19;154403;-59
2023/01/21 00:23:03;;;;;;;;;;;;;;;19.84;36.43;102473.47;7255290;19;153842;-59
2023/01/21 00:25:30;;;;;;;;;;;;;;;19.84;36.25;102465.06;7254513;19;154448;-59
2023/01/21 00:27:58;;;;;;;;;;;;;;;19.83;36.13;102466.16;7257685;19;153916;-59
2023/01/21 00:30:25;;;;;;;;;;;;;;;19.83;36.22;102471.78;7257405;19;154454;-59
2023/01/21 00:32:52;;;;;;;;;;;;;;;19.80;36.52;102466.72;7257790;19;154591;-59
2023/01/21 00:35:19;;;;;;;;;;;;;;;19.77;36.38;102470.03;7262886;19;153350;-60
2023/01/21 00:37:49;;;;;;;;;;;;;;;19.75;36.15;102477.88;7254305;19;154649;-58
2023/01/21 00:40:16;;;;;;;;;;;;;;;19.72;36.14;102475.59;7255538;19;154795;-58
2023/01/21 00:42:44;;;;;;;;;;;;;;;19.70;36.52;102475.03;7257790;19;155113;-58
2023/01/21 00:45:11;;;;;;;;;;;;;;;19.66;36.14;102473.88;7250968;19;156101;-58
2023/01/21 00:47:38;;;;;;;;;;;;;;;19.66;36.39;102485.09;7254820;19;152656;-58
2023/01/21 00:50:06;;;;;;;;;;;;;;;19.62;36.23;102489.53;7251523;19;156133;-59
2023/01/21 00:52:33;;;;;;;;;;;;;;;19.64;36.29;102493.75;7250013;19;156526;-59
2023/01/21 00:55:00;;;;;;;;;;;;;;;19.61;36.75;102496.25;7264637;19;153168;-58
2023/01/21 00:57:27;;;;;;;;;;;;;;;19.58;36.85;102505.19;7253924;19;155973;-59
2023/01/21 00:59:54;;;;;;;;;;;;;;;19.54;36.91;102508.50;7254442;19;154195;-58
2023/01/21 01:02:21;;;;;;;;;;;;;;;19.54;36.80;102508.50;7254458;19;153672;-60
2023/01/21 01:04:48;;;;;;;;;;;;;;;19.55;36.85;102503.75;7253705;19;153631;-59
2023/01/21 01:07:15;;;;;;;;;;;;;;;19.58;37.32;102513.59;7255689;19;154299;-58
2023/01/21 01:09:42;;;;;;;;;;;;;;;19.55;37.23;102512.16;7252578;19;153603;-59
2023/01/21 01:12:09;;;;;;;;;;;;;;;19.52;37.27;102519.16;7254039;19;154163;-58
2023/01/21 01:14:36;;;;;;;;;;;;;;;19.51;37.38;102516.59;7252747;19;153292;-58
2023/01/21 01:17:03;;;;;;;;;;;;;;;19.49;37.84;102521.59;7262681;19;154147;-58
2023/01/21 01:19:30;;;;;;;;;;;;;;;19.47;38.14;102523.84;7255405;19;153933;-58
2023/01/21 01:21:57;;;;;;;;;;;;;;;19.44;38.23;102528.00;7254569;19;151981;-58
2023/01/21 01:24:24;;;;;;;;;;;;;;;19.43;38.32;102526.34;7252706;19;153221;-59
2023/01/21 01:26:51;;;;;;;;;;;;;;;19.41;38.23;102525.72;7255815;19;154449;-58
2023/01/21 01:29:18;;;;;;;;;;;;;;;19.40;38.41;102532.41;7256567;19;153681;-62
2023/01/21 01:31:45;;;;;;;;;;;;;;;19.38;38.25;102539.41;7256333;19;155637;-59
2023/01/21 01:34:12;;;;;;;;;;;;;;;19.33;38.65;102540.19;7255591;19;154179;-59
2023/01/21 01:36:39;;;;;;;;;;;;;;;19.30;38.68;102540.72;7257686;19;153444;-59
2023/01/21 01:39:06;;;;;;;;;;;;;;;19.28;38.49;102540.13;7260450;19;154230;-58
2023/01/21 01:41:34;;;;;;;;;;;;;;;19.26;38.91;102538.72;7255658;19;153646;-59
2023/01/21 01:44:02;;;;;;;;;;;;;;;19.25;38.78;102539.81;7254893;19;153398;-59
2023/01/21 01:46:31;;;;;;;;;;;;;;;19.23;39.01;102539.22;7252951;19;153760;-58
2023/01/21 01:49:01;;;;;;;;;;;;;;;19.20;39.06;102543.38;7255226;19;153579;-58
2023/01/21 01:51:30;;;;;;;;;;;;;;;19.19;39.16;102546.44;7254677;19;153911;-59
2023/01/21 01:53:58;;;;;;;;;;;;;;;19.14;39.06;102547.22;7255035;19;154062;-59
2023/01/21 01:56:25;;;;;;;;;;;;;;;19.11;39.03;102556.16;7253099;19;154528;-58
2023/01/21 01:58:52;;;;;;;;;;;;;;;19.08;39.10;102557.50;7254699;19;155071;-59
2023/01/21 02:01:19;;;;;;;;;;;;;;;19.06;38.92;102565.34;7261599;19;154137;-59
2023/01/21 02:03:53;;;;;;;;;;;;;;;19.05;38.97;102566.44;7252679;19;154937;-59
2023/01/21 02:06:20;;;;;;;;;;;;;;;19.03;39.17;102562.22;7253171;19;152460;-59
2023/01/21 02:08:47;;;;;;;;;;;;;;;19.01;39.15;102561.63;7254403;19;153511;-59
2023/01/21 02:11:16;;;;;;;;;;;;;;;19.02;39.01;102568.91;7248675;19;153611;-58
2023/01/21 02:13:45;;;;;;;;;;;;;;;19.00;38.84;102583.16;7258420;19;153982;-59
2023/01/21 02:16:12;;;;;;;;;;;;;;;18.96;38.85;102582.00;7258408;19;154662;-59
2023/01/21 02:18:46;;;;;;;;;;;;;;;18.97;39.24;102583.69;7261458;19;154130;-59
2023/01/21 02:21:16;;;;;;;;;;;;;;;18.95;39.45;102583.09;7260840;19;152997;-59
2023/01/21 02:23:46;;;;;;;;;;;;;;;18.90;39.39;102591.41;7267689;19;153893;-59
2023/01/21 02:26:16;;;;;;;;;;;;;;;18.90;39.13;102591.41;7259121;19;152823;-59
2023/01/21 02:28:46;;;;;;;;;;;;;;;18.87;39.26;102591.94;7260987;19;152815;-59
2023/01/21 02:31:15;;;;;;;;;;;;;;;18.86;38.97;102593.03;7259000;19;153912;-58
2023/01/21 02:33:45;;;;;;;;;;;;;;;18.83;39.46;102598.31;7259150;19;153909;-61
2023/01/21 02:36:15;;;;;;;;;;;;;;;18.82;39.47;102597.47;7261216;19;153649;-60
2023/01/21 02:38:46;;;;;;;;;;;;;;;18.78;39.21;102596.28;7258061;19;156963;-58
2023/01/21 02:41:13;;;;;;;;;;;;;;;18.73;39.64;102604.59;7260044;19;154514;-60
2023/01/21 02:43:43;;;;;;;;;;;;;;;18.71;39.69;102601.22;7261041;19;152920;-59
2023/01/21 02:46:15;;;;;;;;;;;;;;;18.69;39.65;102606.22;7264320;19;154356;-59
2023/01/21 02:48:47;;;;;;;;;;;;;;;18.64;39.59;102609.78;7261307;19;153512;-59
2023/01/21 02:51:17;;;;;;;;;;;;;;;18.64;39.64;102608.94;7258482;19;154454;-60
2023/01/21 02:53:44;;;;;;;;;;;;;;;18.61;39.58;102609.47;7258216;19;153770;-59
2023/01/21 02:56:12;;;;;;;;;;;;;;;18.60;39.87;102613.34;7258143;19;154267;-59
2023/01/21 02:58:43;;;;;;;;;;;;;;;18.58;39.77;102615.53;7257232;19;155004;-59
2023/01/21 03:01:13;;;;;;;;;;;;;;;18.55;39.82;102619.72;7258467;19;152560;-59
2023/01/21 03:03:47;;;;;;;;;;;;;;;18.52;39.74;102622.16;7260168;19;154788;-59
2023/01/21 03:06:17;;;;;;;;;;;;;;;18.50;39.74;102627.13;7265085;19;153244;-59
2023/01/21 03:08:50;;;;;;;;;;;;;;;18.47;40.04;102625.72;7259477;19;154179;-59
2023/01/21 03:11:19;;;;;;;;;;;;;;;18.47;39.77;102622.06;7254389;19;154635;-59
2023/01/21 03:18:54;;;;;;;;;;;;;;;18.38;39.88;102635.63;7255439;19;156799;-59
2023/01/21 03:21:28;;;;;;;;;;;;;;;18.37;39.85;102635.88;7255820;19;153768;-59
2023/01/21 03:23:57;;;;;;;;;;;;;;;18.35;39.75;102643.69;7256943;19;155355;-60
2023/01/21 03:26:27;;;;;;;;;;;;;;;18.28;40.29;102645.78;7254662;19;154168;-59
2023/01/21 03:28:57;;;;;;;;;;;;;;;18.26;39.96;102648.81;7264775;19;154497;-59
2023/01/21 03:31:27;;;;;;;;;;;;;;;18.25;39.98;102651.88;7256634;19;155904;-58
2023/01/21 03:33:55;;;;;;;;;;;;;;;18.21;40.16;102657.13;7258847;19;154067;-59
2023/01/21 03:36:31;;;;;;;;;;;;;;;18.17;40.41;102661.50;7257917;19;154373;-59
2023/01/21 03:39:00;;;;;;;;;;;;;;;18.15;40.51;102663.72;7251787;19;154154;-59
2023/01/21 03:41:32;;;;;;;;;;;;;;;18.13;40.12;102661.16;7257504;19;152126;-58
2023/01/21 03:43:59;;;;;;;;;;;;;;;18.13;40.53;102669.56;7259738;19;154158;-59
2023/01/21 03:46:26;;;;;;;;;;;;;;;18.09;40.69;102659.97;7257760;19;155863;-58
2023/01/21 03:48:56;;;;;;;;;;;;;;;18.10;40.44;102667.28;7259896;19;153420;-58
2023/01/21 03:51:26;;;;;;;;;;;;;;;18.09;40.61;102667.50;7266585;19;153597;-59
2023/01/21 03:53:56;;;;;;;;;;;;;;;18.09;40.62;102673.97;7255586;19;155062;-59
2023/01/21 03:56:24;;;;;;;;;;;;;;;18.05;40.95;102675.56;7258386;19;153580;-59
2023/01/21 03:58:51;;;;;;;;;;;;;;;18.03;40.74;102672.19;7255913;19;154545;-58
2023/01/21 04:01:18;;;;;;;;;;;;;;;17.98;41.08;102671.22;7256487;19;153956;-59
2023/01/21 04:03:45;;;;;;;;;;;;;;;17.96;40.96;102671.47;7257338;19;154151;-59
2023/01/21 04:06:14;;;;;;;;;;;;;;;17.96;40.86;102679.84;7254311;19;156199;-58
2023/01/21 04:08:41;;;;;;;;;;;;;;;17.93;40.95;102679.50;7255409;19;153888;-59
2023/01/21 04:11:08;;;;;;;;;;;;;;;17.90;40.93;102683.63;7251111;19;154319;-59
2023/01/21 04:13:41;;;;;;;;;;;;;;;17.88;40.88;102683.06;7263870;19;154364;-59
2023/01/21 04:16:08;;;;;;;;;;;;;;;17.85;41.10;102696.69;7254104;19;154106;-59
2023/01/21 04:18:35;;;;;;;;;;;;;;;17.88;40.66;102690.59;7254867;19;154380;-59
2023/01/21 04:21:02;;;;;;;;;;;;;;;17.81;40.87;102693.50;7253095;19;155158;-59
2023/01/21 04:23:29;;;;;;;;;;;;;;;17.79;40.89;102687.34;7255912;19;154264;-59
2023/01/21 04:25:56;;;;;;;;;;;;;;;17.77;40.91;102697.91;7254487;19;153506;-58
2023/01/21 04:28:23;;;;;;;;;;;;;;;17.70;40.89;102703.66;7256319;19;154219;-59
2023/01/21 04:30:50;;;;;;;;;;;;;;;17.72;41.32;102707.03;7256659;19;152852;-59
2023/01/21 04:33:17;;;;;;;;;;;;;;;17.67;41.23;102715.28;7256140;19;154612;-59
2023/01/21 04:35:44;;;;;;;;;;;;;;;17.70;40.78;102716.78;7262236;19;154301;-63
2023/01/21 04:38:11;;;;;;;;;;;;;;;17.62;40.99;102717.16;7254583;19;153680;-60
2023/01/21 04:40:38;;;;;;;;;;;;;;;17.64;41.36;102717.75;7254199;19;153186;-60
2023/01/21 04:43:05;;;;;;;;;;;;;;;17.58;41.11;102716.78;7257387;19;154493;-60
2023/01/21 04:45:32;;;;;;;;;;;;;;;17.59;41.21;102715.69;7255039;19;155035;-60
2023/01/21 04:47:59;;;;;;;;;;;;;;;17.60;41.42;102720.19;7251714;19;154701;-61
2023/01/21 04:50:26;;;;;;;;;;;;;;;17.57;41.92;102720.66;7257953;19;154112;-60
2023/01/21 04:52:53;;;;;;;;;;;;;;;17.55;41.80;102716.38;7253317;19;155311;-59
2023/01/21 04:55:20;;;;;;;;;;;;;;;17.52;41.61;102725.28;7255027;19;154242;-59
2023/01/21 04:57:50;;;;;;;;;;;;;;;17.51;41.83;102726.34;7265028;19;154208;-59
2023/01/21 05:00:17;;;;;;;;;;;;;;;17.47;41.64;102727.94;7253714;19;154294;-60
2023/01/21 05:02:44;;;;;;;;;;;;;;;17.49;41.69;102734.97;7255154;19;153334;-60
2023/01/21 05:05:11;;;;;;;;;;;;;;;17.40;42.02;102736.44;7253010;19;153955;-59
2023/01/21 05:07:38;;;;;;;;;;;;;;;17.43;41.62;102735.97;7253852;19;154308;-59
2023/01/21 05:10:05;;;;;;;;;;;;;;;17.40;42.17;102735.63;7253980;19;153559;-60
2023/01/21 05:12:32;;;;;;;;;;;;;;;17.40;42.02;102744.00;7254746;19;155849;-58
2023/01/21 05:14:59;;;;;;;;;;;;;;;17.39;42.01;102747.88;7257034;19;154052;-58
2023/01/21 05:17:26;;;;;;;;;;;;;;;17.34;41.80;102749.47;7262122;19;153930;-58
2023/01/21 05:19:53;;;;;;;;;;;;;;;17.33;42.14;102753.34;7251407;19;153234;-58
2023/01/21 05:22:20;;;;;;;;;;;;;;;17.31;41.81;102747.13;7254239;19;153610;-58
2023/01/21 05:24:47;;;;;;;;;;;;;;;17.29;42.02;102749.34;7253904;19;154260;-58
2023/01/21 05:27:14;;;;;;;;;;;;;;;17.29;41.83;102748.47;7253532;19;153581;-59
2023/01/21 05:29:41;;;;;;;;;;;;;;;17.26;41.94;102755.38;7253555;19;154232;-58
2023/01/21 05:32:09;;;;;;;;;;;;;;;17.23;42.08;102767.06;7253474;19;154166;-58
2023/01/21 05:34:36;;;;;;;;;;;;;;;17.25;42.16;102762.09;7251716;19;154068;-58
2023/01/21 05:37:02;;;;;;;;;;;;;;;17.19;42.15;102763.03;7253069;19;154560;-59
2023/01/21 05:39:29;;;;;;;;;;;;;;;17.18;42.62;102769.72;7259931;19;155297;-58
2023/01/21 05:41:56;;;;;;;;;;;;;;;17.18;42.48;102774.44;7254119;19;153319;-58
2023/01/21 05:44:23;;;;;;;;;;;;;;;17.17;42.91;102772.78;7253049;19;155875;-58
2023/01/21 05:46:50;;;;;;;;;;;;;;;17.15;42.61;102780.53;7255786;19;153569;-58
2023/01/21 05:49:17;;;;;;;;;;;;;;;17.16;42.37;102780.31;7260971;19;153587;-58
2023/01/21 05:51:44;;;;;;;;;;;;;;;17.16;42.55;102782.25;7261210;19;153672;-58
2023/01/21 05:54:11;;;;;;;;;;;;;;;17.11;42.30;102780.16;7263155;19;153342;-58
2023/01/21 05:56:38;;;;;;;;;;;;;;;17.12;42.37;102784.66;7261004;19;154045;-58
2023/01/21 05:59:05;;;;;;;;;;;;;;;17.07;42.36;102790.13;7261822;19;153764;-58
2023/01/21 06:01:32;;;;;;;;;;;;;;;17.10;42.35;102795.22;7269388;19;154775;-58
2023/01/21 06:03:58;;;;;;;;;;;;;;;17.07;42.33;102787.31;7261608;19;153504;-59
2023/01/21 06:06:25;;;;;;;;;;;;;;;17.04;42.39;102798.09;7260897;19;153177;-58
2023/01/21 06:08:52;;;;;;;;;;;;;;;17.02;42.08;102792.78;7256706;19;154308;-58
2023/01/21 06:11:19;;;;;;;;;;;;;;;17.01;42.18;102802.25;7252859;19;154997;-58
2023/01/21 06:13:46;;;;;;;;;;;;;;;16.99;42.41;102807.19;7261847;19;153720;-58
2023/01/21 06:16:13;;;;;;;;;;;;;;;16.96;42.25;102802.09;7257848;19;154168;-58
2023/01/21 06:18:40;;;;;;;;;;;;;;;16.97;42.20;102809.41;7261119;19;154538;-58
2023/01/21 06:21:07;;;;;;;;;;;;;;;16.97;42.12;102817.78;7259320;19;153894;-58
2023/01/21 06:23:34;;;;;;;;;;;;;;;16.92;42.61;102820.44;7263999;19;153099;-59
2023/01/21 06:26:01;;;;;;;;;;;;;;;16.93;42.58;102827.72;7258979;19;154338;-59
2023/01/21 06:28:28;;;;;;;;;;;;;;;16.92;42.51;102823.22;7256795;19;153735;-58
2023/01/21 06:30:55;;;;;;;;;;;;;;;16.87;42.44;102826.72;7258477;19;154346;-58
2023/01/21 06:33:22;;;;;;;;;;;;;;;16.87;42.36;102835.09;7260246;19;153104;-58
2023/01/21 06:35:49;;;;;;;;;;;;;;;16.87;42.29;102843.47;7260520;19;155003;-58
2023/01/21 06:38:16;;;;;;;;;;;;;;;16.87;42.21;102848.19;7259354;19;154255;-58
2023/01/21 06:40:43;;;;;;;;;;;;;;;16.84;42.35;102852.34;7257563;19;152616;-58
2023/01/21 06:43:10;;;;;;;;;;;;;;;16.85;42.36;102848.44;7259702;19;154643;-58
2023/01/21 06:45:37;;;;;;;;;;;;;;;16.79;42.47;102856.91;7263466;19;156482;-58
2023/01/21 06:48:04;;;;;;;;;;;;;;;16.80;42.59;102869.78;7255744;19;153263;-58
2023/01/21 06:50:31;;;;;;;;;;;;;;;16.78;42.65;102870.00;7259899;19;154029;-58
2023/01/21 06:52:58;;;;;;;;;;;;;;;16.80;42.25;102878.16;7260717;19;153550;-58
2023/01/21 06:55:25;;;;;;;;;;;;;;;16.76;42.54;102874.97;7256908;19;153677;-58
2023/01/21 06:57:52;;;;;;;;;;;;;;;16.69;42.40;102871.44;7255808;19;154837;-58
2023/01/21 07:00:19;;;;;;;;;;;;;;;16.74;42.65;102873.50;7256820;19;152456;-58
2023/01/21 07:02:46;;;;;;;;;;;;;;;16.73;42.76;102875.44;7257338;19;153649;-58
2023/01/21 07:05:13;;;;;;;;;;;;;;;16.71;42.65;102880.44;7256481;19;153374;-58
2023/01/21 07:07:41;;;;;;;;;;;;;;;16.67;42.80;102881.16;7266601;19;153367;-58
2023/01/21 07:10:08;;;;;;;;;;;;;;;16.68;42.57;102888.41;7254541;19;153968;-58
2023/01/21 07:12:35;;;;;;;;;;;;;;;16.63;42.55;102889.09;7259068;19;154181;-59
2023/01/21 07:15:02;;;;;;;;;;;;;;;16.62;42.71;102884.63;7258453;19;153554;-58
2023/01/21 07:17:30;;;;;;;;;;;;;;;16.64;42.63;102896.41;7254444;19;153389;-58
2023/01/21 07:19:57;;;;;;;;;;;;;;;16.63;42.69;102891.03;7257960;19;153525;-58
2023/01/21 07:22:24;;;;;;;;;;;;;;;16.63;42.75;102899.41;7258564;19;154257;-59
2023/01/21 07:24:50;;;;;;;;;;;;;;;16.60;42.68;102894.31;7254766;19;152562;-58
2023/01/21 07:27:17;;;;;;;;;;;;;;;16.59;42.67;102895.38;7266156;19;153667;-58
2023/01/21 07:29:44;;;;;;;;;;;;;;;16.57;42.54;102894.75;7257282;19;154118;-59
2023/01/21 07:32:11;;;;;;;;;;;;;;;16.54;42.89;102900.78;7260510;19;153795;-58
2023/01/21 07:34:38;;;;;;;;;;;;;;;16.52;43.06;102900.19;7257815;19;153217;-58
2023/01/21 07:37:05;;;;;;;;;;;;;;;16.53;42.91;102899.97;7256884;19;153964;-58
2023/01/21 07:39:32;;;;;;;;;;;;;;;16.52;42.52;102897.41;7257921;19;154024;-58
2023/01/21 07:41:59;;;;;;;;;;;;;;;16.49;42.80;102911.81;7260841;19;155223;-58
2023/01/21 07:44:26;;;;;;;;;;;;;;;16.50;42.69;102905.13;7255072;19;155152;-59
2023/01/21 07:46:53;;;;;;;;;;;;;;;16.49;43.08;102911.81;7257343;19;153546;-58
2023/01/21 07:49:20;;;;;;;;;;;;;;;16.50;42.80;102919.09;7261604;19;154126;-58
2023/01/21 07:51:47;;;;;;;;;;;;;;;16.45;43.13;102920.63;7258650;19;151861;-58
2023/01/21 07:54:14;;;;;;;;;;;;;;;16.46;43.08;102924.28;7256672;19;154647;-58
2023/01/21 07:56:41;;;;;;;;;;;;;;;16.43;43.14;102933.13;7252153;19;154893;-58
2023/01/21 07:59:09;;;;;;;;;;;;;;;16.43;43.78;102938.72;7257968;19;154804;-58
2023/01/21 08:01:36;;;;;;;;;;;;;;;16.48;43.87;102938.88;7257700;19;154276;-58
2023/01/21 08:04:03;;;;;;;;;;;;;;;16.52;44.06;102944.81;7257974;19;153735;-58
2023/01/21 08:06:30;;;;;;;;;;;;;;;16.56;43.90;102943.28;7255441;19;153759;-58
2023/01/21 08:08:57;;;;;;;;;;;;;;;16.58;43.77;102944.75;7255257;19;154592;-58
2023/01/21 08:11:24;;;;;;;;;;;;;;;16.62;43.87;102947.97;7259665;19;154082;-58
2023/01/21 08:13:50;;;;;;;;;;;;;;;16.66;44.03;102952.00;7256654;19;153665;-59
2023/01/21 08:16:17;;;;;;;;;;;;;;;16.67;44.34;102957.31;7255246;19;154270;-59
2023/01/21 08:18:44;;;;;;;;;;;;;;;16.74;44.40;102962.84;7258826;19;153684;-58
2023/01/21 08:21:11;;;;;;;;;;;;;;;16.77;44.20;102966.00;7256508;19;154119;-58
2023/01/21 08:23:38;;;;;;;;;;;;;;;16.80;43.86;102964.69;7256322;19;153352;-58
2023/01/21 08:26:05;;;;;;;;;;;;;;;16.84;44.15;102961.19;7257170;19;153570;-58
2023/01/21 08:28:32;;;;;;;;;;;;;;;16.87;43.99;102962.66;7256834;19;153464;-58
2023/01/21 08:31:02;;;;;;;;;;;;;;;16.91;44.09;102963.91;7255149;19;153635;-58
2023/01/21 08:33:29;;;;;;;;;;;;;;;16.95;43.76;102973.50;7264880;19;153288;-59
2023/01/21 08:35:58;;;;;;;;;;;;;;;17.00;43.85;102972.78;7256225;19;155123;-59
2023/01/21 08:38:25;;;;;;;;;;;;;;;17.02;43.88;102977.06;7255165;19;153217;-59
2023/01/21 08:40:52;;;;;;;;;;;;;;;17.05;43.53;102976.59;7257109;19;154730;-59
2023/01/21 08:43:19;;;;;;;;;;;;;;;17.08;43.41;102976.13;7255966;19;156036;-58
2023/01/21 08:45:46;;;;;;;;;;;;;;;17.11;43.26;102975.66;7256499;19;152180;-58
2023/01/21 08:48:13;;;;;;;;;;;;;;;17.15;43.25;102976.88;7254723;19;153554;-59
2023/01/21 08:50:40;;;;;;;;;;;;;;;17.19;43.51;102989.28;7254749;19;154112;-58
2023/01/21 08:53:08;;;;;;;;;;;;;;;17.21;43.41;102984.34;7254689;19;153668;-58
2023/01/21 08:55:35;;;;;;;;;;;;;;;17.26;43.67;102990.03;7261756;19;153084;-58
2023/01/21 08:58:03;;;;;;;;;;;;;;;17.32;43.74;102982.66;7253817;19;153810;-58
2023/01/21 09:00:30;;;;;;;;;;;;;;;17.37;43.50;102990.34;7255241;19;153459;-58
2023/01/21 09:02:57;;;;;;;;;;;;;;;17.42;43.70;102988.53;7255228;19;154097;-59
2023/01/21 09:05:24;;;;;;;;;;;;;;;17.48;43.79;102993.19;7255534;19;153173;-58
2023/01/21 09:07:51;;;;;;;;;;;;;;;17.53;44.04;102993.31;7253800;19;153618;-58
2023/01/21 09:12:49;;;;;;;;;;;;;;;17.64;43.56;102997.25;7255790;19;153634;-58
2023/01/21 09:15:16;;;;;;;;;;;;;;;17.70;43.86;103002.75;7252874;19;154590;-59
2023/01/21 09:17:43;;;;;;;;;;;;;;;17.75;43.88;103004.84;7259083;19;153351;-59
2023/01/21 09:20:11;;;;;;;;;;;;;;;17.82;43.75;103010.31;7253474;19;154485;-58
2023/01/21 09:22:38;;;;;;;;;;;;;;;17.86;43.38;103017.13;7253114;19;155523;-59
2023/01/21 09:25:09;;;;;;;;;;;;;;;17.91;43.31;103020.91;7254169;19;152791;-58
2023/01/21 09:27:36;;;;;;;;;;;;;;;17.97;42.86;103021.91;7252385;19;155209;-59
2023/01/21 09:30:04;;;;;;;;;;;;;;;18.02;43.14;103028.47;7248339;19;156176;-58
2023/01/21 09:32:31;;;;;;;;;;;;;;;18.07;43.19;103031.41;7256669;19;152890;-58
2023/01/21 09:34:58;;;;;;;;;;;;;;;18.15;43.46;103036.63;7253206;19;153917;-58
2023/01/21 09:37:25;;;;;;;;;;;;;;;18.19;42.90;103039.81;7254875;19;156835;-58
2023/01/21 09:39:52;;;;;;;;;;;;;;;18.23;42.31;103041.03;7252657;19;154355;-58
2023/01/21 09:42:23;;;;;;;;;;;;;;;18.28;41.93;103045.88;7253229;19;153746;-58
2023/01/21 09:44:51;;;;;;;;;;;;;;;18.31;42.06;103049.03;7254274;19;153816;-58
2023/01/21 09:47:19;;;;;;;;;;;;;;;18.37;41.85;103050.03;7254240;19;155475;-58
2023/01/21 09:49:50;;;;;;;;;;;;;;;18.40;41.45;103057.94;7253719;19;154501;-59
2023/01/21 09:52:20;;;;;;;;;;;;;;;18.42;41.21;103053.81;7254742;19;154137;-58
2023/01/21 09:54:47;;;;;;;;;;;;;;;18.47;41.09;103061.47;7253948;19;154271;-58
2023/01/21 09:57:14;;;;;;;;;;;;;;;18.48;41.24;103055.66;7255255;19;154422;-59
2023/01/21 09:59:47;;;;;;;;;;;;;;;18.52;41.21;103065.25;7261576;19;153755;-58
2023/01/21 10:02:20;;;;;;;;;;;;;;;18.57;40.93;103064.56;7254514;19;154037;-58
2023/01/21 10:04:51;;;;;;;;;;;;;;;18.61;40.78;103060.19;7251365;19;154061;-58
2023/01/21 10:07:26;;;;;;;;;;;;;;;18.64;41.32;103070.88;7253470;19;154246;-58
2023/01/21 10:10:00;;;;;;;;;;;;;;;18.70;41.78;103071.84;7251047;19;155126;-58
2023/01/21 10:12:27;;;;;;;;;;;;;;;18.76;41.89;103068.91;7255419;19;154427;-58
2023/01/21 10:14:58;;;;;;;;;;;;;;;18.80;41.72;103072.09;7249571;19;154637;-58
2023/01/21 10:17:26;;;;;;;;;;;;;;;18.83;41.39;103078.06;7255016;19;153163;-61
2023/01/21 10:20:01;;;;;;;;;;;;;;;18.88;40.82;103082.94;7252264;19;152875;-58
2023/01/21 10:22:28;;;;;;;;;;;;;;;18.92;41.08;103084.13;7258932;19;153956;-58
2023/01/21 10:24:56;;;;;;;;;;;;;;;18.96;40.78;103079.75;7250807;19;153277;-58
2023/01/21 10:27:24;;;;;;;;;;;;;;;19.03;40.73;103083.28;7255543;19;154080;-60
2023/01/21 10:29:56;;;;;;;;;;;;;;;19.06;40.18;103083.63;7249818;19;155193;-60
2023/01/21 10:32:24;;;;;;;;;;;;;;;19.09;40.00;103083.13;7247327;19;154664;-61
2023/01/21 10:34:53;;;;;;;;;;;;;;;19.13;39.63;103079.81;7252494;19;155199;-59
2023/01/21 10:37:23;;;;;;;;;;;;;;;19.15;39.10;103078.50;7254943;19;152623;-60
2023/01/21 10:39:53;;;;;;;;;;;;;;;19.17;38.91;103090.28;7253167;19;153664;-59
2023/01/21 10:42:23;;;;;;;;;;;;;;;19.19;39.00;103088.09;7257261;19;154115;-60
2023/01/21 10:44:50;;;;;;;;;;;;;;;19.22;38.58;103090.41;7265369;19;154690;-60
2023/01/21 10:47:21;;;;;;;;;;;;;;;19.25;38.41;103089.06;7257588;19;153705;-59
2023/01/21 10:49:49;;;;;;;;;;;;;;;19.27;38.29;103090.50;7256043;19;154579;-59
2023/01/21 10:52:16;;;;;;;;;;;;;;;19.30;38.33;103095.66;7257023;19;153945;-60
2023/01/21 10:54:47;;;;;;;;;;;;;;;19.33;38.06;103094.28;7258557;19;153804;-59
2023/01/21 10:57:15;;;;;;;;;;;;;;;19.35;38.26;103086.50;7257158;19;153781;-59
2023/01/21 10:59:42;;;;;;;;;;;;;;;19.39;37.78;103090.50;7256861;19;152499;-59
2023/01/21 11:02:12;;;;;;;;;;;;;;;19.39;37.77;103082.94;7258489;19;153302;-60
2023/01/21 11:04:40;;;;;;;;;;;;;;;19.43;37.58;103089.78;7256484;19;156055;-59
2023/01/21 11:07:10;;;;;;;;;;;;;;;19.45;37.56;103081.09;7264621;19;152336;-60
2023/01/21 11:09:39;;;;;;;;;;;;;;;19.47;37.63;103091.00;7250407;19;154669;-59
2023/01/21 11:12:08;;;;;;;;;;;;;;;19.51;37.64;103088.53;7254344;19;154367;-59
2023/01/21 11:14:35;;;;;;;;;;;;;;;19.53;37.77;103089.97;7255202;19;153647;-59
2023/01/21 11:17:06;;;;;;;;;;;;;;;19.56;37.53;103084.97;7256173;19;154688;-59
2023/01/21 11:19:34;;;;;;;;;;;;;;;19.59;37.24;103076.06;7261235;19;153771;-58
2023/01/21 11:22:04;;;;;;;;;;;;;;;19.60;37.44;103081.44;7258477;19;153403;-58
2023/01/21 11:24:41;;;;;;;;;;;;;;;19.66;37.68;103076.78;7255379;19;154064;-60
2023/01/21 11:27:17;;;;;;;;;;;;;;;19.68;37.06;103088.56;7265348;19;153821;-59
2023/01/21 11:29:46;;;;;;;;;;;;;;;19.72;37.44;103079.41;7255410;19;154548;-60
2023/01/21 11:32:15;;;;;;;;;;;;;;;19.73;37.25;103078.31;7257175;19;154145;-61
2023/01/21 11:34:54;;;;;;;;;;;;;;;19.76;37.04;103075.00;7256689;19;153038;-59
2023/01/21 11:37:24;;;;;;;;;;;;;;;19.78;37.07;103078.41;7254634;19;154411;-59
2023/01/21 11:39:55;;;;;;;;;;;;;;;19.81;37.00;103082.66;7260385;19;154246;-59
2023/01/21 11:42:23;;;;;;;;;;;;;;;19.83;36.93;103086.06;7259661;19;153305;-59
2023/01/21 11:44:53;;;;;;;;;;;;;;;19.82;36.68;103085.22;7259712;19;154483;-59
2023/01/21 11:47:23;;;;;;;;;;;;;;;19.82;36.90;103078.75;7261109;19;153352;-59
2023/01/21 11:49:51;;;;;;;;;;;;;;;19.83;36.36;103074.84;7263658;19;154208;-59
2023/01/21 11:52:19;;;;;;;;;;;;;;;19.85;36.41;103061.44;7258655;19;154068;-59
2023/01/21 11:54:46;;;;;;;;;;;;;;;19.84;36.78;103069.00;7255685;19;155085;-59
2023/01/21 11:57:17;;;;;;;;;;;;;;;19.84;36.49;103071.81;7257786;19;155358;-59
2023/01/21 11:59:45;;;;;;;;;;;;;;;19.86;36.49;103068.72;7255347;19;155449;-59
2023/01/21 12:02:16;;;;;;;;;;;;;;;19.86;36.47;103068.72;7257475;19;155784;-59
2023/01/21 12:04:45;;;;;;;;;;;;;;;19.83;36.18;103064.50;7253860;19;154142;-59
2023/01/21 12:07:17;;;;;;;;;;;;;;;19.82;37.08;103067.53;7256371;19;153384;-60
2023/01/21 12:09:47;;;;;;;;;;;;;;;19.33;33.44;103069.91;7248286;19;154642;-59
2023/01/21 12:12:24;;;;;;;;;;;;;;;18.99;32.21;103065.22;7260130;19;155501;-59
2023/01/21 12:14:54;;;;;;;;;;;;;;;19.17;33.92;103061.44;7255319;19;153325;-59
2023/01/21 12:17:29;;;;;;;;;;;;;;;19.29;34.23;103056.66;7255170;19;155106;-59
2023/01/21 12:19:56;;;;;;;;;;;;;;;19.38;34.88;103060.75;7254053;19;153542;-59
2023/01/21 12:22:31;;;;;;;;;;;;;;;19.43;35.09;103058.94;7255537;19;154530;-59
2023/01/21 12:24:58;;;;;;;;;;;;;;;19.46;35.22;103057.59;7252630;19;154141;-60
2023/01/21 12:27:28;;;;;;;;;;;;;;;19.50;35.69;103050.38;7258330;19;153491;-59
2023/01/21 12:30:02;;;;;;;;;;;;;;;19.54;35.71;103054.38;7252158;19;155777;-59
2023/01/21 12:32:33;;;;;;;;;;;;;;;19.57;36.05;103058.66;7256222;19;154464;-59
2023/01/21 12:35:07;;;;;;;;;;;;;;;19.61;35.95;103051.44;7261526;19;154267;-59
2023/01/21 12:37:38;;;;;;;;;;;;;;;19.65;36.22;103055.44;7251590;19;154233;-59
2023/01/21 12:40:08;;;;;;;;;;;;;;;19.67;36.22;103045.66;7253817;19;154059;-59